Time;durP1;ratioP1;P1;durP2;ratioP2;P2;SDS_P1;SDS_P2;PMS_P1;PMS_P2;Temp;Humidity;BMP_temperature;BMP_pressure;BME280_temperature;BME280_humidity;BME280_pressure;Samples;Min_cycle;Max_cycle;Signal;HPM_P1;HPM_P2
2022/10/01 00:00:14;;;;;;;5.63;3.50;;;;;;;9.40;100.00;100143.53;5116500;28;20360;-74
2022/10/01 00:02:40;;;;;;;4.97;4.03;;;;;;;9.37;100.00;100128.72;5116395;28;20038;-75
2022/10/01 00:05:06;;;;;;;4.60;3.80;;;;;;;9.37;100.00;100123.44;5116508;28;20032;-73
2022/10/01 00:07:42;;;;;;;5.28;3.85;;;;;;;9.37;100.00;100119.94;5115840;28;20031;-73
2022/10/01 00:10:07;;;;;;;10.52;4.13;;;;;;;9.38;100.00;100121.63;5116290;28;20049;-73
2022/10/01 00:12:33;;;;;;;6.60;3.70;;;;;;;9.39;100.00;100125.94;5116361;28;20445;-74
2022/10/01 00:14:59;;;;;;;4.38;3.30;;;;;;;9.38;100.00;100100.38;5116071;28;20028;-73
2022/10/01 00:17:24;;;;;;;5.60;3.72;;;;;;;9.38;100.00;100105.69;5116174;28;20114;-72
2022/10/01 00:19:49;;;;;;;9.10;3.65;;;;;;;9.38;100.00;100097.72;5116812;28;20040;-74
2022/10/01 00:22:15;;;;;;;3.88;3.28;;;;;;;9.40;100.00;100090.44;5116138;28;20047;-74
2022/10/01 00:24:41;;;;;;;6.20;3.92;;;;;;;9.40;100.00;100095.75;5116015;28;20035;-74
2022/10/01 00:27:09;;;;;;;5.97;3.55;;;;;;;9.42;100.00;100117.66;5116616;28;20465;-73
2022/10/01 00:29:35;;;;;;;4.10;3.15;;;;;;;9.42;100.00;100118.53;5115784;28;20028;-75
2022/10/01 00:32:00;;;;;;;6.32;3.33;;;;;;;9.42;100.00;100081.34;5115875;28;20038;-75
2022/10/01 00:34:27;;;;;;;13.38;4.00;;;;;;;9.42;100.00;100077.84;5116479;28;20032;-76
2022/10/01 00:36:52;;;;;;;4.45;3.65;;;;;;;9.42;100.00;100059.25;5115629;28;20036;-74
2022/10/01 00:39:18;;;;;;;5.65;3.50;;;;;;;9.43;100.00;100084.81;5115791;28;20452;-74
2022/10/01 00:41:43;;;;;;;5.72;3.63;;;;;;;9.44;100.00;100068.75;5115526;28;20039;-73
2022/10/01 00:44:33;;;;;;;5.78;3.90;;;;;;;9.44;100.00;100063.44;5115716;28;20042;-73
2022/10/01 00:47:32;;;;;;;8.63;3.97;;;;;;;9.45;100.00;100061.59;5115984;28;20066;-73
2022/10/01 00:50:23;;;;;;;4.00;3.60;;;;;;;9.48;100.00;100055.97;5114464;28;20027;-73
2022/10/01 00:52:55;;;;;;;3.40;3.10;;;;;;;9.49;100.00;100045.25;5115437;28;20519;-72
2022/10/01 00:55:25;;;;;;;5.95;3.60;;;;;;;9.50;100.00;100051.38;5115712;28;20076;-73
2022/10/01 00:57:53;;;;;;;5.05;3.80;;;;;;;9.50;100.00;100046.88;5114963;28;20027;-74
2022/10/01 01:00:19;;;;;;;5.57;3.70;;;;;;;9.50;100.00;100044.25;5113629;28;20028;-74
2022/10/01 01:02:44;;;;;;;4.88;3.60;;;;;;;9.51;100.00;100059.19;5115155;28;20038;-76
2022/10/01 01:05:12;;;;;;;6.53;3.58;;;;;;;9.52;100.00;100042.28;5114883;28;20040;-75
2022/10/01 01:07:43;;;;;;;5.13;3.50;;;;;;;9.54;100.00;100039.47;5115027;28;20036;-73
2022/10/01 01:10:09;;;;;;;;;;;;;;;9.56;100.00;100040.16;5116072;28;20028;-72
2022/10/01 01:13:08;;;;;;;3.92;3.47;;;;;;;9.56;100.00;100021.56;5115030;28;19938;-72
2022/10/01 01:15:54;;;;;;;4.28;3.80;;;;;;;9.56;100.00;100031.34;5115466;28;20080;-74
2022/10/01 01:18:22;;;;;;;5.30;4.00;;;;;;;9.58;100.00;100037.34;5114960;28;20050;-73
2022/10/01 01:21:09;;;;;;;6.00;4.13;;;;;;;9.59;100.00;100029.22;5115028;28;20027;-74
2022/10/01 01:24:08;;;;;;;4.50;3.88;;;;;;;9.59;100.00;100036.34;5115339;28;20024;-75
2022/10/01 01:26:48;;;;;;;5.90;4.50;;;;;;;9.62;100.00;100033.41;5114783;28;20037;-74
2022/10/01 01:29:30;;;;;;;5.95;4.55;;;;;;;9.63;100.00;100035.91;5115568;28;20184;-75
2022/10/01 01:32:01;;;;;;;5.32;4.43;;;;;;;9.65;100.00;100033.09;5114913;28;20219;-73
2022/10/01 01:34:30;;;;;;;8.32;5.22;;;;;;;9.66;100.00;100009.03;5114697;28;20568;-74
2022/10/01 01:37:10;;;;;;;8.70;4.30;;;;;;;9.68;100.00;100033.59;5114176;28;20026;-73
2022/10/01 01:39:39;;;;;;;7.97;5.18;;;;;;;9.70;100.00;100029.00;5114965;28;20368;-74
2022/10/01 01:42:10;;;;;;;5.72;4.32;;;;;;;9.75;100.00;100017.06;5114598;28;20161;-73
2022/10/01 01:44:39;;;;;;;6.82;4.88;;;;;;;9.77;100.00;100036.34;5114749;28;20035;-72
2022/10/01 01:47:07;;;;;;;6.80;4.93;;;;;;;9.80;100.00;100036.03;5114666;28;20055;-72
2022/10/01 01:49:33;;;;;;;8.52;5.20;;;;;;;9.86;100.00;100022.13;5114303;28;20035;-74
2022/10/01 01:52:14;;;;;;;7.70;4.88;;;;;;;9.88;100.00;99998.88;5114200;28;20067;-75
2022/10/01 01:54:48;;;;;;;8.73;5.03;;;;;;;9.89;100.00;100029.78;5114521;28;20035;-71
2022/10/01 01:57:16;;;;;;;5.90;4.70;;;;;;;9.93;100.00;100025.84;5114736;28;20036;-74
2022/10/01 01:59:41;;;;;;;10.93;5.20;;;;;;;9.93;100.00;100030.31;5114151;28;20028;-73
2022/10/01 02:02:13;;;;;;;7.72;4.80;;;;;;;9.95;100.00;100033.66;5113782;28;20039;-74
2022/10/01 02:04:48;;;;;;;5.93;4.55;;;;;;;9.96;100.00;100038.81;5114413;28;20035;-73
2022/10/01 02:07:41;;;;;;;5.57;4.43;;;;;;;9.96;100.00;100036.16;5114222;28;20027;-74
2022/10/01 02:10:25;;;;;;;6.45;4.30;;;;;;;9.98;100.00;100012.91;5113836;28;20055;-74
2022/10/01 02:13:28;;;;;;;6.82;3.85;;;;;;;10.01;100.00;100011.78;5113799;28;20034;-73
2022/10/01 02:16:08;;;;;;;5.18;3.80;;;;;;;10.04;100.00;100012.28;5113846;28;20028;-73
2022/10/01 02:18:43;;;;;;;7.10;3.78;;;;;;;10.04;100.00;100014.13;5113885;28;20118;-73
2022/10/01 02:21:17;;;;;;;4.68;3.72;;;;;;;10.06;100.00;100010.31;5113491;28;20051;-73
2022/10/01 02:23:59;;;;;;;5.97;3.47;;;;;;;10.07;100.00;99998.69;5113142;28;20362;-73
2022/10/01 02:26:28;;;;;;;6.43;3.75;;;;;;;10.10;100.00;100010.84;5114144;28;20027;-72
2022/10/01 02:28:59;;;;;;;5.25;3.47;;;;;;;10.10;100.00;100013.50;5113677;28;20027;-73
2022/10/01 02:31:27;;;;;;;5.75;3.80;;;;;;;10.11;100.00;100017.84;5113970;28;20019;-73
2022/10/01 02:33:55;;;;;;;4.93;3.58;;;;;;;10.15;100.00;100011.22;5113549;28;20023;-73
2022/10/01 02:36:23;;;;;;;6.07;3.60;;;;;;;10.19;100.00;100003.75;5113514;28;20054;-74
2022/10/01 02:38:51;;;;;;;4.40;3.72;;;;;;;10.19;100.00;100012.56;5113435;28;20039;-73
2022/10/01 02:41:23;;;;;;;5.18;3.55;;;;;;;10.22;100.00;99995.47;5114277;28;20513;-74
2022/10/01 02:44:11;;;;;;;7.32;3.75;;;;;;;10.23;100.00;99989.97;5113762;28;20028;-73
2022/10/01 02:46:44;;;;;;;4.70;3.70;;;;;;;10.29;100.00;99996.50;5112691;28;20054;-74
2022/10/01 02:49:12;;;;;;;6.93;3.75;;;;;;;10.30;100.00;100000.00;5113479;28;20112;-73
2022/10/01 02:51:57;;;;;;;4.47;4.07;;;;;;;10.33;100.00;100008.53;5113339;28;20471;-73
2022/10/01 02:54:33;;;;;;;5.72;3.88;;;;;;;10.36;100.00;100002.03;5113937;28;20023;-72
2022/10/01 02:59:43;;;;;;;4.35;3.72;;;;;;;10.41;100.00;100005.06;5113440;28;20448;-73
2022/10/01 03:02:08;;;;;;;6.65;3.90;;;;;;;10.47;100.00;100007.09;5112093;28;20106;-72
2022/10/01 03:04:34;;;;;;;5.43;4.07;;;;;;;10.48;100.00;100000.78;5113371;28;20028;-72
2022/10/01 03:07:02;;;;;;;5.07;3.75;;;;;;;10.50;100.00;100003.28;5113230;28;20067;-73
2022/10/01 03:09:33;;;;;;;4.85;3.75;;;;;;;10.53;100.00;99998.47;5113219;28;20019;-73
2022/10/01 03:11:59;;;;;;;4.00;3.60;;;;;;;10.55;100.00;100007.16;5113481;28;20367;-73
2022/10/01 03:14:25;;;;;;;5.53;3.67;;;;;;;10.57;100.00;100001.66;5113258;28;20032;-73
2022/10/01 03:16:51;;;;;;;3.88;3.38;;;;;;;10.58;100.00;100008.63;5112965;28;20120;-73
2022/10/01 03:19:17;;;;;;;4.47;3.60;;;;;;;10.61;100.00;100007.50;5113436;28;20058;-74
2022/10/01 03:21:43;;;;;;;5.07;3.63;;;;;;;10.63;100.00;100005.50;5115286;28;20039;-73
2022/10/01 03:24:08;;;;;;;5.63;3.15;;;;;;;10.66;100.00;100010.50;5117751;28;20496;-74
2022/10/01 03:26:33;;;;;;;4.78;3.30;;;;;;;10.67;100.00;100009.50;5117067;28;20035;-73
2022/10/01 03:28:59;;;;;;;4.78;2.92;;;;;;;10.68;100.00;100011.19;5117083;28;20040;-73
2022/10/01 03:31:24;;;;;;;5.38;3.20;;;;;;;10.69;100.00;100015.50;5117549;28;20042;-74
2022/10/01 03:33:49;;;;;;;3.75;2.70;;;;;;;10.74;100.00;100015.88;5117055;28;20031;-74
2022/10/01 03:36:15;;;;;;;4.53;2.53;;;;;;;10.76;100.00;100013.88;5116906;28;20036;-74
2022/10/01 03:38:40;;;;;;;5.35;2.80;;;;;;;10.81;100.00;100014.22;5117419;28;20076;-73
2022/10/01 03:41:06;;;;;;;7.68;2.88;;;;;;;10.84;100.00;100013.91;5116816;28;20080;-73
2022/10/01 03:43:31;;;;;;;6.88;2.65;;;;;;;10.88;100.00;100022.41;5117110;28;20058;-73
2022/10/01 03:45:56;;;;;;;4.00;2.80;;;;;;;10.90;100.00;100023.09;5116358;28;20038;-73
2022/10/01 03:48:22;;;;;;;10.48;2.83;;;;;;;10.91;100.00;100012.28;5116693;28;20024;-73
2022/10/01 03:50:58;;;;;;;5.88;2.53;;;;;;;10.90;100.00;100028.41;5116612;28;20172;-73
2022/10/01 03:53:26;;;;;;;4.10;2.50;;;;;;;10.90;100.00;100034.56;5116686;28;20107;-74
2022/10/01 03:55:52;;;;;;;5.15;2.47;;;;;;;10.92;100.00;100037.06;5116399;28;20088;-74
2022/10/01 03:58:17;;;;;;;4.75;2.38;;;;;;;10.93;100.00;100042.22;5116621;28;20387;-74
2022/10/01 04:00:45;;;;;;;4.32;2.50;;;;;;;10.93;100.00;100050.19;5116505;28;20035;-75
2022/10/01 04:03:10;;;;;;;4.90;2.72;;;;;;;10.99;100.00;100058.53;5116312;28;20487;-74
2022/10/01 04:05:36;;;;;;;5.38;2.67;;;;;;;11.01;100.00;100054.72;5115920;28;20027;-73
2022/10/01 04:08:01;;;;;;;6.72;2.97;;;;;;;11.07;100.00;100064.72;5116233;28;20032;-73
2022/10/01 04:10:26;;;;;;;5.72;2.55;;;;;;;11.13;100.00;100070.41;5115952;28;20031;-72
2022/10/01 04:12:54;;;;;;;6.00;2.42;;;;;;;11.11;100.00;100068.72;5116202;28;20106;-73
2022/10/01 04:15:20;;;;;;;8.98;2.78;;;;;;;11.07;100.00;100055.91;5115923;28;20082;-73
2022/10/01 04:17:46;;;;;;;5.05;2.60;;;;;;;11.04;100.00;100066.88;5116107;28;20047;-73
2022/10/01 04:20:11;;;;;;;4.68;2.22;;;;;;;11.00;100.00;100078.84;5116015;28;20032;-73
2022/10/01 04:22:41;;;;;;;4.30;2.17;;;;;;;10.93;100.00;100087.47;5114650;28;20059;-73
2022/10/01 04:25:09;;;;;;;5.85;2.45;;;;;;;10.91;100.00;100088.59;5114304;28;20076;-73
2022/10/01 04:27:35;;;;;;;9.57;2.58;;;;;;;10.88;100.00;100084.47;5115730;28;20042;-73
2022/10/01 04:30:01;;;;;;;7.05;2.28;;;;;;;10.85;100.00;100090.09;5115940;28;20115;-73
2022/10/01 04:32:26;;;;;;;5.85;2.60;;;;;;;10.78;100.00;100102.38;5114732;28;20494;-73
2022/10/01 04:34:52;;;;;;;7.05;2.42;;;;;;;10.70;100.00;100094.31;5114694;28;20368;-73
2022/10/01 04:37:19;;;;;;;8.00;2.72;;;;;;;10.63;100.00;100101.25;5097446;28;20028;-73
2022/10/01 04:39:44;;;;;;;7.80;2.30;;;;;;;10.61;100.00;100103.25;5115741;28;20028;-74
2022/10/01 04:42:09;;;;;;;6.03;2.20;;;;;;;10.54;100.00;100109.22;5115594;28;20395;-73
2022/10/01 04:44:35;;;;;;;8.80;2.10;;;;;;;10.45;100.00;100109.31;5115603;28;20085;-73
2022/10/01 04:47:00;;;;;;;6.43;2.97;;;;;;;10.34;100.00;100111.22;5115529;28;20067;-73
2022/10/01 04:49:26;;;;;;;4.70;2.10;;;;;;;10.25;100.00;100112.13;5115257;28;20502;-73
2022/10/01 04:51:51;;;;;;;11.75;2.70;;;;;;;10.17;100.00;100118.22;5114253;28;20036;-73
2022/10/01 04:54:16;;;;;;;7.13;2.15;;;;;;;10.15;100.00;100124.66;5115316;28;20028;-73
2022/10/01 04:56:42;;;;;;;9.25;2.42;;;;;;;10.15;100.00;100128.19;5115423;28;20091;-73
2022/10/01 04:59:07;;;;;;;10.70;3.10;;;;;;;10.15;100.00;100122.88;5115351;28;20209;-73
2022/10/01 05:01:32;;;;;;;9.20;2.97;;;;;;;10.15;100.00;100122.00;5115571;28;20080;-73
2022/10/01 05:03:58;;;;;;;9.02;2.05;;;;;;;10.22;100.00;100131.06;5115255;28;20112;-73
2022/10/01 05:06:23;;;;;;;16.17;2.78;;;;;;;10.33;100.00;100135.28;5115203;28;20369;-74
2022/10/01 05:08:50;;;;;;;9.52;2.53;;;;;;;10.42;100.00;100142.38;5115111;28;20027;-73
2022/10/01 05:11:16;;;;;;;16.13;2.45;;;;;;;10.49;100.00;100143.41;5115231;28;20110;-73
2022/10/01 05:13:42;;;;;;;13.55;2.63;;;;;;;10.61;100.00;100148.47;5115018;28;20371;-74
2022/10/01 05:16:07;;;;;;;12.05;2.50;;;;;;;10.69;100.00;100151.19;5115004;28;20085;-74
2022/10/01 05:18:33;;;;;;;15.52;2.50;;;;;;;10.72;100.00;100162.38;5114821;28;20114;-74
2022/10/01 05:21:03;;;;;;;12.02;2.38;;;;;;;10.83;100.00;100161.25;5114761;28;20030;-75
2022/10/01 05:23:28;;;;;;;14.32;2.35;;;;;;;10.92;100.00;100167.47;5115313;28;20023;-74
2022/10/01 05:25:54;;;;;;;9.63;2.15;;;;;;;10.98;100.00;100166.00;5114358;28;20035;-74
2022/10/01 05:28:19;;;;;;;21.17;2.58;;;;;;;11.03;100.00;100172.53;5114721;28;20035;-74
2022/10/01 05:30:45;;;;;;;15.23;2.42;;;;;;;11.03;100.00;100177.84;5114474;28;20027;-74
2022/10/01 05:33:10;;;;;;;11.10;2.40;;;;;;;11.10;100.00;100183.38;5114637;28;20038;-73
2022/10/01 05:35:35;;;;;;;10.55;1.83;;;;;;;11.19;100.00;100181.59;5114217;28;20087;-74
2022/10/01 05:38:04;;;;;;;11.85;2.53;;;;;;;11.27;100.00;100182.47;5114670;28;20118;-74
2022/10/01 05:40:29;;;;;;;16.02;2.33;;;;;;;11.33;100.00;100188.13;5114630;28;20031;-74
2022/10/01 05:42:57;;;;;;;12.43;2.10;;;;;;;11.34;100.00;100179.16;5114730;28;20336;-74
2022/10/01 05:45:23;;;;;;;10.88;2.55;;;;;;;11.32;100.00;100191.81;5114133;28;20126;-74
2022/10/01 05:47:57;;;;;;;11.98;2.22;;;;;;;11.25;100.00;100188.94;5114688;28;20046;-74
2022/10/01 05:50:24;;;;;;;10.40;1.63;;;;;;;11.16;100.00;100187.22;5114301;28;20027;-74
2022/10/01 05:52:52;;;;;;;12.18;2.30;;;;;;;11.08;100.00;100198.69;5114785;28;20040;-74
2022/10/01 05:55:18;;;;;;;11.00;2.33;;;;;;;11.09;100.00;100200.31;5114347;28;20063;-74
2022/10/01 05:57:44;;;;;;;8.80;2.13;;;;;;;11.12;100.00;100197.34;5114161;28;20077;-74
2022/10/01 06:00:12;;;;;;;8.98;2.00;;;;;;;11.26;100.00;100203.94;5114182;28;20071;-74
2022/10/01 06:02:37;;;;;;;7.88;2.00;;;;;;;11.39;100.00;100207.00;5113993;28;20048;-74
2022/10/01 06:05:03;;;;;;;10.68;2.20;;;;;;;11.54;100.00;100209.03;5113810;28;20035;-74
2022/10/01 06:07:31;;;;;;;9.52;2.38;;;;;;;11.59;100.00;100207.56;5113850;28;20028;-74
2022/10/01 06:09:57;;;;;;;14.70;2.40;;;;;;;11.63;100.00;100216.91;5113740;28;20032;-74
2022/10/01 06:12:22;;;;;;;13.20;2.17;;;;;;;11.72;100.00;100220.44;5113825;28;20421;-75
2022/10/01 06:14:47;;;;;;;7.60;1.67;;;;;;;11.75;100.00;100222.78;5113655;28;20036;-74
2022/10/01 06:17:13;;;;;;;8.82;1.50;;;;;;;11.61;100.00;100250.88;5112988;28;20036;-76
2022/10/01 06:19:38;;;;;;;9.40;2.00;;;;;;;11.49;100.00;100227.34;5113753;28;20059;-78
2022/10/01 06:22:03;;;;;;;7.50;1.60;;;;;;;11.33;100.00;100225.41;5113457;28;20078;-75
2022/10/01 06:24:30;;;;;;;7.47;1.40;;;;;;;11.19;100.00;100225.00;5113678;28;20035;-75
2022/10/01 06:26:56;;;;;;;5.45;1.33;;;;;;;11.10;100.00;100232.13;5113693;28;20036;-75
2022/10/01 06:29:22;;;;;;;7.80;1.38;;;;;;;11.03;100.00;100231.09;5113678;28;20555;-73
2022/10/01 06:31:47;;;;;;;10.25;1.80;;;;;;;10.97;100.00;100237.03;5114365;28;20054;-75
2022/10/01 06:34:12;;;;;;;6.15;1.40;;;;;;;10.90;100.00;100228.03;5114002;28;20024;-74
2022/10/01 06:36:38;;;;;;;6.75;1.60;;;;;;;10.87;100.00;100244.31;5113475;28;20118;-74
2022/10/01 06:39:03;;;;;;;10.80;1.80;;;;;;;10.90;100.00;100246.66;5113479;28;20040;-74
2022/10/01 06:41:28;;;;;;;10.75;2.15;;;;;;;10.94;100.00;100248.84;5113499;28;20413;-74
2022/10/01 06:43:53;;;;;;;10.55;2.00;;;;;;;11.02;100.00;100249.91;5113630;28;20429;-73
2022/10/01 06:46:19;;;;;;;9.10;1.88;;;;;;;11.12;100.00;100245.28;5113741;28;20418;-73
2022/10/01 06:48:46;;;;;;;11.55;2.30;;;;;;;11.29;100.00;100249.72;5113104;28;20057;-74
2022/10/01 06:51:12;;;;;;;16.02;2.75;;;;;;;11.43;100.00;100256.25;5113091;28;20051;-74
2022/10/01 06:53:37;;;;;;;9.98;2.30;;;;;;;11.56;100.00;100258.50;5113347;28;20059;-74
2022/10/01 06:56:06;;;;;;;18.50;2.47;;;;;;;11.72;100.00;100256.88;5114106;28;20038;-73
2022/10/01 06:58:33;;;;;;;8.15;2.55;;;;;;;11.86;100.00;100256.28;5117736;28;20034;-74
2022/10/01 07:01:00;;;;;;;17.58;2.15;;;;;;;11.96;100.00;100265.00;5117640;28;20047;-74
2022/10/01 07:03:25;;;;;;;13.57;2.30;;;;;;;12.03;100.00;100256.38;5117178;28;20027;-74
2022/10/01 07:05:51;;;;;;;11.43;2.10;;;;;;;12.16;100.00;100270.06;5117481;28;20035;-73
2022/10/01 07:08:17;;;;;;;14.25;2.55;;;;;;;12.35;100.00;100271.59;5117315;28;20360;-73
2022/10/01 07:10:43;;;;;;;19.95;2.97;;;;;;;12.45;100.00;100268.75;5117317;28;20471;-74
2022/10/01 07:13:10;;;;;;;12.15;2.08;;;;;;;12.47;100.00;100269.47;5117832;27;20033;-73
2022/10/01 07:15:36;;;;;;;16.17;3.63;;;;;;;12.45;100.00;100272.28;5117191;28;20034;-73
2022/10/01 07:18:02;;;;;;;14.32;2.13;;;;;;;12.41;100.00;100272.78;5117835;28;20115;-73
2022/10/01 07:20:28;;;;;;;11.63;2.75;;;;;;;12.40;100.00;100279.13;5116776;28;20528;-73
2022/10/01 07:22:58;;;;;;;13.52;2.50;;;;;;;12.41;100.00;100284.28;5117745;28;20055;-73
2022/10/01 07:25:24;;;;;;;18.92;2.53;;;;;;;12.45;100.00;100290.97;5117090;28;20131;-74
2022/10/01 07:27:57;;;;;;;17.33;2.25;;;;;;;12.57;100.00;100296.81;5116961;28;20032;-73
2022/10/01 07:30:24;;;;;;;15.98;1.98;;;;;;;12.74;100.00;100294.16;5117825;28;20036;-74
2022/10/01 07:32:49;;;;;;;13.65;2.10;;;;;;;12.75;100.00;100295.81;5116953;28;20028;-74
2022/10/01 07:35:15;;;;;;;14.00;2.40;;;;;;;12.71;100.00;100308.66;5117008;28;20080;-74
2022/10/01 07:37:41;;;;;;;14.70;2.45;;;;;;;12.68;100.00;100309.00;5116931;28;20032;-73
2022/10/01 07:40:07;;;;;;;13.57;1.67;;;;;;;12.68;100.00;100309.00;5116944;28;20055;-73
2022/10/01 07:42:33;;;;;;;10.05;1.83;;;;;;;12.67;100.00;100310.84;5117515;28;20375;-73
2022/10/01 07:44:58;;;;;;;16.23;2.65;;;;;;;12.59;100.00;100312.66;5115841;28;20084;-74
2022/10/01 07:47:24;;;;;;;12.93;1.90;;;;;;;12.47;100.00;100317.47;5115584;28;20526;-74
2022/10/01 07:49:49;;;;;;;12.23;1.75;;;;;;;12.40;100.00;100325.28;5116922;28;20032;-73
2022/10/01 07:52:15;;;;;;;12.30;2.50;;;;;;;12.36;100.00;100331.97;5116906;28;20076;-73
2022/10/01 07:54:40;;;;;;;11.95;2.22;;;;;;;12.50;100.00;100333.16;5116598;28;20131;-73
2022/10/01 07:57:06;;;;;;;15.20;2.00;;;;;;;12.78;100.00;100340.84;5116561;28;20456;-73
2022/10/01 07:59:32;;;;;;;16.70;2.33;;;;;;;13.13;100.00;100338.88;5116943;28;20036;-74
2022/10/01 08:01:58;;;;;;;11.20;2.25;;;;;;;13.38;100.00;100340.53;5116499;28;20035;-74
2022/10/01 08:07:08;;;;;;;7.72;2.08;;;;;;;13.63;100.00;100347.66;5115573;28;20038;-73
2022/10/01 08:09:34;;;;;;;10.45;2.00;;;;;;;13.67;100.00;100347.16;5115801;28;20043;-78
2022/10/01 08:12:01;;;;;;;13.93;2.20;;;;;;;13.74;100.00;100349.97;5116585;28;20019;-80
2022/10/01 08:14:27;;;;;;;12.27;2.00;;;;;;;14.00;100.00;100349.75;5116709;28;20036;-74
2022/10/01 08:16:54;;;;;;;24.63;2.30;;;;;;;14.31;100.00;100359.63;5116630;28;20036;-74
2022/10/01 08:19:20;;;;;;;11.10;2.28;;;;;;;14.43;100.00;100360.06;5116214;28;20445;-77
2022/10/01 08:21:45;;;;;;;16.23;2.47;;;;;;;14.31;100.00;100359.63;5116325;28;20064;-76
2022/10/01 08:24:11;;;;;;;13.32;2.38;;;;;;;14.16;100.00;100361.38;5116324;28;20059;-76
2022/10/01 08:26:36;;;;;;;12.10;2.15;;;;;;;13.98;100.00;100369.63;5115555;28;20040;-76
2022/10/01 08:29:02;;;;;;;14.23;2.50;;;;;;;13.87;100.00;100368.19;5116205;28;20070;-76
2022/10/01 08:31:27;;;;;;;13.02;2.15;;;;;;;13.78;100.00;100370.03;5116174;28;20028;-75
2022/10/01 08:33:52;;;;;;;13.27;2.17;;;;;;;13.70;100.00;100384.25;5115805;28;20471;-80
2022/10/01 08:36:18;;;;;;;8.50;2.05;;;;;;;13.59;100.00;100395.31;5115650;28;20064;-77
2022/10/01 08:38:45;;;;;;;10.85;2.15;;;;;;;14.02;100.00;100385.16;5115805;28;20103;-77
2022/10/01 08:41:35;;;;;;;13.60;2.28;;;;;;;14.74;100.00;100391.38;5115850;28;20071;-76
2022/10/01 08:44:05;;;;;;;12.32;2.58;;;;;;;15.37;100.00;100391.22;5115445;28;20030;-75
2022/10/01 08:46:34;;;;;;;13.77;2.30;;;;;;;15.79;100.00;100398.69;5115605;28;20063;-77
2022/10/01 08:49:18;;;;;;;14.68;2.40;;;;;;;17.14;100.00;100399.31;5115610;28;20031;-75
2022/10/01 08:52:04;;;;;;;15.93;2.67;;;;;;;17.60;100.00;100400.69;5115367;28;20038;-75
2022/10/01 08:54:39;;;;;;;12.98;2.42;;;;;;;18.21;96.29;100410.81;5115811;28;20059;-75
2022/10/01 08:57:11;;;;;;;11.93;2.13;;;;;;;18.76;84.13;100408.09;5115722;28;20024;-76
2022/10/01 08:59:41;;;;;;;11.32;2.17;;;;;;;17.53;92.44;100416.78;5116224;28;20107;-77
2022/10/01 09:02:28;;;;;;;13.02;2.40;;;;;;;16.27;99.74;100425.19;5115021;28;20019;-75
2022/10/01 09:04:57;;;;;;;10.25;2.25;;;;;;;15.73;100.00;100425.41;5114649;28;20475;-75
2022/10/01 09:07:42;;;;;;;14.45;2.40;;;;;;;15.50;100.00;100435.16;5115243;28;20035;-74
2022/10/01 09:10:17;;;;;;;15.95;3.67;;;;;;;16.30;100.00;100442.75;5115623;28;20107;-75
2022/10/01 09:12:51;;;;;;;18.77;2.70;;;;;;;18.49;90.58;100428.75;5115156;28;20023;-75
2022/10/01 09:15:37;;;;;;;10.20;2.58;;;;;;;19.14;79.89;100452.63;5114585;28;20027;-78
2022/10/01 09:18:05;;;;;;;11.25;2.08;;;;;;;19.08;77.52;100450.72;5115155;28;20177;-75
2022/10/01 09:20:46;;;;;;;14.77;2.20;;;;;;;17.85;85.34;100451.38;5115126;28;20096;-76
2022/10/01 09:23:17;;;;;;;11.52;2.42;;;;;;;16.81;92.97;100466.94;5114951;28;20114;-75
2022/10/01 09:25:45;;;;;;;17.30;2.92;;;;;;;16.43;99.85;100469.75;5114842;28;20463;-75
2022/10/01 09:28:15;;;;;;;13.57;2.22;;;;;;;17.26;98.02;100470.34;5114652;28;20387;-75
2022/10/01 09:30:46;;;;;;;12.05;2.35;;;;;;;19.11;87.63;100463.78;5114862;28;20035;-76
2022/10/01 09:33:16;;;;;;;11.65;2.28;;;;;;;18.61;83.63;100491.78;5116465;28;20035;-82
2022/10/01 09:35:47;;;;;;;13.30;2.17;;;;;;;19.22;79.31;100482.06;5114765;28;20107;-73
2022/10/01 09:38:17;;;;;;;12.65;2.10;;;;;;;18.63;79.55;100488.91;5114714;28;20135;-75
2022/10/01 09:40:53;;;;;;;12.80;2.45;;;;;;;19.12;78.62;100484.31;5114906;28;20031;-75
2022/10/01 09:43:22;;;;;;;12.82;2.40;;;;;;;19.85;71.68;100495.19;5115193;28;20027;-77
2022/10/01 09:45:50;;;;;;;11.00;2.22;;;;;;;20.33;71.40;100486.00;5114222;28;20062;-74
2022/10/01 09:48:19;;;;;;;13.98;2.70;;;;;;;20.60;65.11;100489.44;5114372;28;20053;-74
2022/10/01 09:50:58;;;;;;;12.77;2.30;;;;;;;21.40;62.63;100487.38;5114503;28;20023;-74
2022/10/01 09:53:31;;;;;;;15.50;2.90;;;;;;;21.02;65.09;100502.59;5114503;28;20058;-74
2022/10/01 09:56:03;;;;;;;13.30;2.65;;;;;;;20.11;68.40;100501.63;5114741;28;20085;-76
2022/10/01 09:58:29;;;;;;;10.25;1.98;;;;;;;19.58;67.94;100497.03;5114599;28;20023;-77
2022/10/01 10:00:55;;;;;;;8.93;2.55;;;;;;;17.98;73.86;100508.00;5114405;28;20491;-77
2022/10/01 10:03:28;;;;;;;15.02;2.53;;;;;;;17.85;83.67;100519.47;5114189;28;20035;-77
2022/10/01 10:05:54;;;;;;;16.30;3.15;;;;;;;18.34;77.62;100517.78;5114326;28;20305;-76
2022/10/01 10:08:38;;;;;;;10.30;2.13;;;;;;;18.94;72.24;100528.84;5114131;28;20560;-76
2022/10/01 10:11:08;;;;;;;16.17;2.33;;;;;;;19.73;69.96;100523.84;5114406;28;20376;-74
2022/10/01 10:13:42;;;;;;;14.63;2.60;;;;;;;19.04;66.62;100536.56;5114170;28;20111;-77
2022/10/01 10:16:17;;;;;;;20.30;2.72;;;;;;;18.68;68.99;100548.44;5114268;28;20038;-78
2022/10/01 10:18:50;;;;;;;15.40;2.38;;;;;;;18.10;75.69;100540.59;5113959;28;20205;-76
2022/10/01 10:21:22;;;;;;;16.88;2.78;;;;;;;17.65;77.74;100550.78;5113721;28;20405;-80
2022/10/01 10:23:55;;;;;;;;;;;;;;;17.27;81.41;100547.28;5113156;28;20380;-75
2022/10/01 10:26:27;;;;;;;16.40;2.92;;;;;;;16.78;85.25;100560.50;5114334;28;19970;-80
2022/10/01 10:28:55;;;;;;;13.02;2.30;;;;;;;16.38;87.01;100566.16;5112475;28;20031;-82
2022/10/01 10:31:26;;;;;;;17.23;2.55;;;;;;;16.40;90.19;100562.25;5113609;28;20035;-75
2022/10/01 10:34:21;;;;;;;12.45;2.22;;;;;;;16.38;88.70;100572.34;5113710;28;20024;-78
2022/10/01 10:36:47;;;;;;;19.38;2.28;;;;;;;16.12;90.09;100571.94;5113559;28;20500;-76
2022/10/01 10:39:34;;;;;;;15.52;2.50;;;;;;;16.28;92.28;100581.69;5113683;28;20044;-75
2022/10/01 10:42:02;;;;;;;9.63;2.10;;;;;;;16.30;90.75;100575.13;5113943;28;20103;-80
2022/10/01 10:44:35;;;;;;;19.52;2.88;;;;;;;16.19;88.64;100592.50;5113667;28;20462;-78
2022/10/01 10:47:04;;;;;;;15.90;2.17;;;;;;;16.18;91.03;100590.84;5111885;28;20054;-76
2022/10/01 10:49:32;;;;;;;15.07;2.53;;;;;;;16.49;87.19;100589.84;5113806;28;20050;-77
2022/10/01 10:51:59;;;;;;;13.52;2.40;;;;;;;16.52;87.61;100605.59;5113777;28;20080;-78
2022/10/01 10:54:36;;;;;;;11.00;2.53;;;;;;;16.49;86.99;100608.66;5113227;28;20036;-76
2022/10/01 10:57:20;;;;;;;17.98;2.90;;;;;;;16.59;89.79;100615.63;5113642;28;20035;-72
2022/10/01 10:59:58;;;;;;;11.32;2.00;;;;;;;16.54;88.78;100621.53;5113549;28;20463;-75
2022/10/01 11:02:25;;;;;;;17.33;2.65;;;;;;;16.23;88.40;100633.25;5114093;28;20401;-77
2022/10/01 11:04:52;;;;;;;10.27;2.33;;;;;;;15.93;88.78;100643.03;5113280;28;20055;-78
2022/10/01 11:07:23;;;;;;;10.20;1.95;;;;;;;15.82;88.90;100650.50;5113374;28;20028;-76
2022/10/01 11:10:29;;;;;;;10.52;2.40;;;;;;;15.72;89.04;100638.28;5113616;28;20043;-78
2022/10/01 11:13:13;;;;;;;8.98;1.80;;;;;;;15.73;93.01;100648.00;5033493;28;20432;-74
2022/10/01 11:16:02;;;;;;;12.32;2.65;;;;;;;15.86;93.04;100646.44;5050220;28;20095;-75
2022/10/01 11:18:56;;;;;;;15.27;2.30;;;;;;;16.28;90.26;100644.25;5096998;28;20048;-76
2022/10/01 11:21:31;;;;;;;18.13;3.30;;;;;;;16.52;92.04;100661.16;5113170;28;20050;-77
2022/10/01 11:24:15;;;;;;;16.00;2.55;;;;;;;16.29;86.16;100664.72;5113235;28;20127;-77
2022/10/01 11:26:57;;;;;;;16.92;2.80;;;;;;;16.07;87.81;100671.78;5112369;28;20036;-77
2022/10/01 11:29:35;;;;;;;10.38;2.17;;;;;;;16.03;86.86;100678.50;5113162;28;20159;-77
2022/10/01 11:32:50;;;;;;;12.15;2.30;;;;;;;15.91;89.21;100682.63;5113059;28;20058;-76
2022/10/01 11:35:27;;;;;;;19.55;2.47;;;;;;;15.53;88.86;100680.63;5050276;28;20040;-78